createdAt,value
2022-09-17T00:01:40.098Z,9.80
2022-09-17T00:04:28.793Z,9.80
2022-09-17T00:07:17.262Z,9.80
2022-09-17T00:10:05.002Z,9.80
2022-09-17T00:12:57.647Z,9.70
2022-09-17T00:15:51.320Z,11.60
2022-09-17T00:18:42.274Z,9.80
2022-09-17T00:21:30.414Z,9.80
2022-09-17T00:24:18.400Z,11.10
2022-09-17T00:27:06.718Z,9.90
2022-09-17T00:29:54.230Z,9.90
2022-09-17T00:32:43.053Z,9.90
2022-09-17T00:35:30.365Z,11.40
2022-09-17T00:38:17.890Z,9.80
2022-09-17T00:41:05.794Z,9.80
2022-09-17T00:43:55.363Z,9.90
2022-09-17T00:46:44.761Z,9.80
2022-09-17T00:49:34.410Z,9.80
2022-09-17T00:52:27.925Z,9.80
2022-09-17T00:55:17.867Z,9.80
2022-09-17T00:58:08.220Z,9.80
2022-09-17T01:00:55.654Z,9.80
2022-09-17T01:03:43.047Z,9.80
2022-09-17T01:06:34.468Z,9.80
2022-09-17T01:09:26.770Z,9.00
2022-09-17T01:12:21.412Z,9.80
2022-09-17T01:15:16.988Z,9.40
2022-09-17T01:18:18.569Z,9.70
2022-09-17T01:21:25.680Z,9.70
2022-09-17T01:24:37.152Z,9.80
2022-09-17T01:27:46.065Z,9.70
2022-09-17T01:30:48.664Z,10.20
2022-09-17T01:33:41.565Z,9.80
2022-09-17T01:36:35.684Z,9.80
2022-09-17T01:39:31.860Z,9.70
2022-09-17T01:42:21.544Z,9.70
2022-09-17T01:45:11.445Z,9.70
2022-09-17T01:48:00.673Z,10.80
2022-09-17T01:50:53.185Z,10.60
2022-09-17T01:53:44.732Z,9.70
2022-09-17T01:56:35.592Z,9.90
2022-09-17T01:59:28.872Z,9.80
2022-09-17T02:02:18.110Z,9.10
2022-09-17T02:05:08.165Z,9.80
2022-09-17T02:07:59.476Z,10.30
2022-09-17T02:10:49.414Z,9.80
2022-09-17T02:13:40.214Z,10.00
2022-09-17T02:16:29.374Z,8.80
2022-09-17T02:19:19.924Z,9.90
2022-09-17T02:22:13.596Z,9.80
2022-09-17T02:25:05.556Z,10.40
2022-09-17T02:27:58.064Z,9.90
2022-09-17T02:30:46.747Z,9.80
2022-09-17T02:33:35.131Z,9.80
2022-09-17T02:36:25.068Z,9.90
2022-09-17T02:39:12.902Z,11.50
2022-09-17T02:42:10.619Z,10.00
2022-09-17T02:45:01.797Z,9.90
2022-09-17T02:48:02.949Z,10.10
2022-09-17T02:50:59.378Z,9.90
2022-09-17T02:53:51.127Z,10.10
2022-09-17T02:56:46.283Z,9.90
2022-09-17T02:59:42.132Z,10.00
2022-09-17T03:02:31.576Z,10.30
2022-09-17T03:05:20.443Z,10.10
2022-09-17T03:08:09.625Z,9.90
2022-09-17T03:10:57.683Z,8.20
2022-09-17T03:13:45.253Z,9.90
2022-09-17T03:16:34.073Z,9.90
2022-09-17T03:19:21.732Z,9.90
2022-09-17T03:22:10.185Z,9.80
2022-09-17T03:24:57.637Z,9.80
2022-09-17T03:27:45.424Z,9.80
2022-09-17T03:30:33.070Z,9.60
2022-09-17T03:33:22.291Z,9.60
2022-09-17T03:36:09.875Z,9.60
2022-09-17T03:38:57.933Z,9.60
2022-09-17T03:41:45.905Z,9.60
2022-09-17T03:44:33.940Z,9.60
2022-09-17T03:47:23.020Z,9.60
2022-09-17T03:50:13.064Z,9.50
2022-09-17T03:53:00.493Z,9.60
2022-09-17T03:55:48.207Z,9.60
2022-09-17T03:58:36.298Z,9.50
2022-09-17T04:01:24.005Z,9.50
2022-09-17T04:04:11.325Z,9.50
2022-09-17T04:07:00.831Z,9.50
2022-09-17T04:09:49.300Z,9.50
2022-09-17T04:12:37.310Z,9.50
2022-09-17T04:15:25.032Z,9.50
2022-09-17T04:18:12.398Z,9.40
2022-09-17T04:21:00.473Z,9.50
2022-09-17T04:23:52.242Z,9.40
2022-09-17T04:26:39.635Z,9.40
2022-09-17T04:29:28.789Z,9.40
2022-09-17T04:32:16.764Z,9.40
2022-09-17T04:35:05.436Z,9.40
2022-09-17T04:37:56.646Z,8.70
2022-09-17T04:40:46.784Z,9.40
2022-09-17T04:43:34.473Z,9.30
2022-09-17T04:46:22.770Z,9.30
2022-09-17T04:49:11.539Z,9.30
2022-09-17T04:51:59.258Z,9.40
2022-09-17T04:54:47.103Z,9.30
2022-09-17T04:57:37.316Z,9.30
2022-09-17T05:00:25.583Z,9.40
2022-09-17T05:03:21.843Z,9.40
2022-09-17T05:06:31.367Z,10.40
2022-09-17T05:09:27.063Z,9.50
2022-09-17T05:12:15.138Z,9.40
2022-09-17T05:15:04.656Z,8.90
2022-09-17T05:17:55.095Z,9.50
2022-09-17T05:20:45.136Z,9.30
2022-09-17T05:23:33.350Z,9.30
2022-09-17T05:26:21.263Z,9.20
2022-09-17T05:29:08.877Z,9.30
2022-09-17T05:31:57.539Z,9.30
2022-09-17T05:34:46.258Z,9.30
2022-09-17T05:37:34.607Z,9.30
2022-09-17T05:40:22.221Z,9.30
2022-09-17T05:43:11.108Z,9.90
2022-09-17T05:46:02.205Z,9.40
2022-09-17T05:48:51.411Z,9.30
2022-09-17T05:51:41.722Z,9.40
2022-09-17T05:54:29.571Z,9.40
2022-09-17T05:57:17.486Z,9.40
2022-09-17T06:00:06.123Z,9.40
2022-09-17T06:02:59.487Z,9.50
2022-09-17T06:05:54.940Z,9.60
2022-09-17T06:08:42.232Z,9.50
2022-09-17T06:11:33.034Z,10.40
2022-09-17T06:14:20.880Z,9.60
2022-09-17T06:17:10.217Z,9.60
2022-09-17T06:19:59.336Z,10.60
2022-09-17T06:22:49.086Z,9.70
2022-09-17T06:25:36.647Z,9.70
2022-09-17T06:28:24.412Z,10.40
2022-09-17T06:31:12.753Z,9.90
2022-09-17T06:34:01.761Z,10.30
2022-09-17T06:36:50.125Z,9.90
2022-09-17T06:39:40.249Z,9.90
2022-09-17T06:42:28.798Z,10.10
2022-09-17T06:45:17.180Z,9.90
2022-09-17T06:48:06.053Z,9.90
2022-09-17T06:50:54.509Z,10.00
2022-09-17T06:53:43.112Z,10.00
2022-09-17T06:56:34.536Z,10.00
2022-09-17T06:59:22.453Z,10.10
2022-09-17T07:02:10.399Z,10.40
2022-09-17T07:04:58.333Z,11.20
2022-09-17T07:07:46.620Z,10.30
2022-09-17T07:10:34.332Z,10.30
2022-09-17T07:13:23.992Z,10.30
2022-09-17T07:16:14.840Z,10.30
2022-09-17T07:19:02.458Z,10.20
2022-09-17T07:21:52.383Z,10.30
2022-09-17T07:24:41.050Z,9.50
2022-09-17T07:27:29.035Z,10.40
2022-09-17T07:30:18.226Z,10.60
2022-09-17T07:33:08.464Z,12.20
2022-09-17T07:35:58.759Z,10.90
2022-09-17T07:38:46.652Z,10.90
2022-09-17T07:41:34.514Z,10.90
2022-09-17T07:44:23.039Z,11.00
2022-09-17T07:47:13.390Z,11.00
2022-09-17T07:50:01.354Z,11.10
2022-09-17T07:52:48.867Z,12.10
2022-09-17T07:55:37.048Z,11.30
2022-09-17T07:58:25.660Z,11.20
2022-09-17T08:01:15.892Z,11.10
2022-09-17T08:04:06.136Z,11.00
2022-09-17T08:06:54.407Z,11.50
2022-09-17T08:09:42.682Z,11.40
2022-09-17T08:12:30.788Z,12.50
2022-09-17T08:15:20.874Z,11.20
2022-09-17T08:18:09.262Z,11.20
2022-09-17T08:21:03.168Z,11.20
2022-09-17T08:23:50.927Z,11.20
2022-09-17T08:26:39.265Z,11.60
2022-09-17T08:29:28.658Z,11.10
2022-09-17T08:32:20.901Z,11.00
2022-09-17T08:35:11.952Z,11.40
2022-09-17T08:38:04.583Z,11.50
2022-09-17T08:41:06.330Z,11.40
2022-09-17T08:43:59.367Z,11.40
2022-09-17T08:46:48.905Z,12.80
2022-09-17T08:49:41.796Z,11.60
2022-09-17T08:52:44.526Z,11.60
2022-09-17T08:55:35.463Z,11.60
2022-09-17T08:58:35.609Z,13.30
2022-09-17T09:01:34.618Z,11.60
2022-09-17T09:04:38.166Z,12.30
2022-09-17T09:07:27.530Z,11.50
2022-09-17T09:10:19.017Z,11.70
2022-09-17T09:13:12.004Z,12.00
2022-09-17T09:16:03.062Z,12.20
2022-09-17T09:18:53.348Z,12.00
2022-09-17T09:21:47.060Z,12.30
2022-09-17T09:24:41.165Z,12.20
2022-09-17T09:27:29.826Z,12.10
2022-09-17T09:30:28.103Z,12.00
2022-09-17T09:33:20.769Z,12.00
2022-09-17T09:36:09.359Z,12.00
2022-09-17T09:38:59.426Z,12.10
2022-09-17T09:41:49.239Z,12.10
2022-09-17T09:44:40.011Z,12.20
2022-09-17T09:47:50.162Z,12.30
2022-09-17T09:51:05.631Z,12.40
2022-09-17T09:54:02.090Z,12.40
2022-09-17T09:56:58.089Z,12.40
2022-09-17T09:59:50.431Z,13.80
2022-09-17T10:02:39.080Z,12.30
2022-09-17T10:05:30.100Z,12.50
2022-09-17T10:08:20.159Z,12.80
2022-09-17T10:11:19.799Z,13.10
2022-09-17T10:14:29.542Z,13.20
2022-09-17T10:17:22.379Z,11.80
2022-09-17T10:20:22.220Z,12.90
2022-09-17T10:23:15.445Z,12.60
2022-09-17T10:26:05.269Z,12.40
2022-09-17T10:28:55.053Z,12.10
2022-09-17T10:31:49.901Z,11.80
2022-09-17T10:34:39.587Z,11.20
2022-09-17T10:37:35.837Z,12.20
2022-09-17T10:40:28.701Z,11.60
2022-09-17T10:43:30.474Z,10.90
2022-09-17T10:46:27.819Z,10.80
2022-09-17T10:49:25.382Z,10.60
2022-09-17T10:52:16.260Z,10.40
2022-09-17T10:55:25.702Z,10.20
2022-09-17T10:58:38.056Z,10.20
2022-09-17T11:01:37.462Z,10.50
2022-09-17T11:04:31.402Z,10.40
2022-09-17T11:07:34.474Z,11.10
2022-09-17T11:10:25.244Z,11.70
2022-09-17T11:13:30.694Z,11.40
2022-09-17T11:16:30.029Z,11.30
2022-09-17T11:19:28.384Z,10.20
2022-09-17T11:22:23.439Z,10.60
2022-09-17T11:25:25.707Z,11.20
2022-09-17T11:28:31.798Z,11.20
2022-09-17T11:31:25.320Z,11.10
2022-09-17T11:34:23.801Z,11.10
2022-09-17T11:37:16.908Z,11.20
2022-09-17T11:40:10.314Z,11.40
2022-09-17T11:46:09.015Z,12.80
2022-09-17T11:49:07.606Z,11.40
2022-09-17T11:52:01.543Z,11.30
2022-09-17T11:54:54.024Z,11.40
2022-09-17T11:57:43.299Z,10.00
2022-09-17T12:00:46.041Z,11.40
2022-09-17T12:03:36.138Z,11.50
2022-09-17T12:06:27.439Z,12.50
2022-09-17T12:09:18.545Z,11.60
2022-09-17T12:12:21.733Z,11.60
2022-09-17T12:15:23.428Z,11.70
2022-09-17T12:18:34.104Z,13.10
2022-09-17T12:21:26.621Z,12.10
2022-09-17T12:24:16.894Z,12.20
2022-09-17T12:27:17.166Z,12.20
2022-09-17T12:30:12.791Z,12.70
2022-09-17T12:33:15.234Z,13.60
2022-09-17T12:36:17.545Z,12.50
2022-09-17T12:39:17.185Z,13.60
2022-09-17T12:42:09.488Z,13.80
2022-09-17T12:45:10.298Z,12.90
2022-09-17T12:48:13.314Z,13.20
2022-09-17T12:51:15.444Z,14.20
2022-09-17T12:54:11.364Z,13.20
2022-09-17T12:57:04.849Z,13.40
2022-09-17T13:00:03.962Z,13.50
2022-09-17T13:03:04.536Z,13.60
2022-09-17T13:06:09.241Z,13.60
2022-09-17T13:09:24.112Z,13.80
2022-09-17T13:12:28.546Z,13.80
2022-09-17T13:15:25.660Z,13.70
2022-09-17T13:18:27.415Z,13.60
2022-09-17T13:21:23.038Z,13.70
2022-09-17T13:24:16.766Z,13.90
2022-09-17T13:27:06.139Z,14.00
2022-09-17T13:30:00.959Z,14.30
2022-09-17T13:32:52.382Z,14.50
2022-09-17T13:35:52.147Z,14.50
2022-09-17T13:38:43.218Z,14.50
2022-09-17T13:41:31.737Z,14.80
2022-09-17T13:44:24.144Z,15.00
2022-09-17T13:47:17.482Z,15.10
2022-09-17T13:50:07.737Z,15.20
2022-09-17T13:52:58.137Z,15.50
2022-09-17T13:55:48.768Z,15.60
2022-09-17T13:58:38.065Z,15.50
2022-09-17T14:01:40.922Z,16.20
2022-09-17T14:04:50.523Z,14.00
2022-09-17T14:07:51.904Z,13.80
2022-09-17T14:10:45.300Z,10.60
2022-09-17T14:13:44.874Z,11.90
2022-09-17T14:16:40.969Z,11.70
2022-09-17T14:19:33.532Z,11.80
2022-09-17T14:22:25.978Z,11.80
2022-09-17T14:25:20.681Z,12.50
2022-09-17T14:28:15.443Z,12.00
2022-09-17T14:31:04.088Z,12.20
2022-09-17T14:33:52.699Z,12.90
2022-09-17T14:36:44.212Z,12.70
2022-09-17T14:39:40.381Z,13.00
2022-09-17T14:42:33.746Z,12.60
2022-09-17T14:45:27.004Z,13.40
2022-09-17T14:48:27.619Z,13.60
2022-09-17T14:51:28.011Z,13.90
2022-09-17T14:54:23.336Z,14.10
2022-09-17T14:57:21.011Z,14.20
2022-09-17T15:00:17.424Z,14.10
2022-09-17T15:03:07.456Z,14.60
2022-09-17T15:05:56.870Z,14.30
2022-09-17T15:08:48.502Z,13.80
2022-09-17T15:11:36.935Z,14.60
2022-09-17T15:14:28.659Z,14.20
2022-09-17T15:17:19.170Z,14.00
2022-09-17T15:20:13.045Z,13.80
2022-09-17T15:23:09.255Z,13.60
2022-09-17T15:25:59.007Z,13.50
2022-09-17T15:28:47.111Z,13.50
2022-09-17T15:31:37.113Z,13.40
2022-09-17T15:34:25.625Z,13.30
2022-09-17T15:37:20.585Z,13.20
2022-09-17T15:40:14.519Z,13.10
2022-09-17T15:43:09.738Z,13.10
2022-09-17T15:45:58.445Z,13.00
2022-09-17T15:48:46.566Z,14.00
2022-09-17T15:51:36.045Z,12.60
2022-09-17T15:54:31.797Z,12.50
2022-09-17T15:57:19.395Z,12.40
2022-09-17T16:00:13.952Z,12.40
2022-09-17T16:03:24.737Z,12.20
2022-09-17T16:06:26.916Z,12.20
2022-09-17T16:09:32.254Z,12.20
2022-09-17T16:12:22.487Z,12.10
2022-09-17T16:15:11.402Z,12.00
2022-09-17T16:17:58.727Z,12.20
2022-09-17T16:20:46.863Z,12.10
2022-09-17T16:23:35.724Z,12.10
2022-09-17T16:26:26.612Z,12.00
2022-09-17T16:29:17.293Z,12.00
2022-09-17T16:32:04.677Z,12.00
2022-09-17T16:34:52.151Z,12.00
2022-09-17T16:37:42.476Z,12.90
2022-09-17T16:40:31.357Z,12.30
2022-09-17T16:43:18.973Z,12.30
2022-09-17T16:46:10.688Z,12.20
2022-09-17T16:48:58.672Z,12.20
2022-09-17T16:51:46.263Z,12.10
2022-09-17T16:54:36.113Z,12.10
2022-09-17T16:57:24.517Z,12.00
2022-09-17T17:00:14.371Z,12.10
2022-09-17T17:03:04.237Z,12.20
2022-09-17T17:05:51.612Z,12.10
2022-09-17T17:08:39.817Z,12.20
2022-09-17T17:11:29.258Z,12.20
2022-09-17T17:14:16.847Z,12.20
2022-09-17T17:17:05.173Z,12.10
2022-09-17T17:19:54.712Z,12.00
2022-09-17T17:22:43.508Z,12.00
2022-09-17T17:25:32.459Z,11.90
2022-09-17T17:28:21.372Z,12.00
2022-09-17T17:31:09.297Z,12.70
2022-09-17T17:33:57.224Z,11.90
2022-09-17T17:36:49.629Z,11.90
2022-09-17T17:39:37.139Z,11.70
2022-09-17T17:42:24.936Z,11.70
2022-09-17T17:45:15.414Z,11.70
2022-09-17T17:48:03.564Z,10.60
2022-09-17T17:50:56.399Z,12.00
2022-09-17T17:53:51.044Z,11.60
2022-09-17T17:56:46.371Z,11.60
2022-09-17T17:59:34.523Z,11.80
2022-09-17T18:02:23.628Z,11.50
2022-09-17T18:05:12.948Z,11.60
2022-09-17T18:08:01.183Z,11.50
2022-09-17T18:11:00.446Z,12.80
2022-09-17T18:13:52.810Z,11.30
2022-09-17T18:16:41.013Z,12.90
2022-09-17T18:19:31.634Z,11.20
2022-09-17T18:22:19.839Z,11.10
2022-09-17T18:25:07.629Z,11.20
2022-09-17T18:27:59.092Z,11.00
2022-09-17T18:31:10.699Z,12.40
2022-09-17T18:33:59.878Z,11.10
2022-09-17T18:36:51.357Z,11.00
2022-09-17T18:42:47.350Z,11.10
2022-09-17T18:45:36.993Z,11.70
2022-09-17T18:48:25.989Z,11.00
2022-09-17T18:51:22.383Z,11.00
2022-09-17T18:54:10.860Z,11.10
2022-09-17T18:56:58.627Z,11.10
2022-09-17T18:59:47.280Z,11.00
2022-09-17T19:02:38.220Z,11.70
2022-09-17T19:05:26.183Z,9.40
2022-09-17T19:08:16.030Z,11.00
2022-09-17T19:11:06.523Z,11.00
2022-09-17T19:13:58.947Z,11.00
2022-09-17T19:16:51.457Z,11.10
2022-09-17T19:19:49.612Z,11.00
2022-09-17T19:22:42.651Z,11.00
2022-09-17T19:25:34.149Z,12.20
2022-09-17T19:28:23.547Z,12.10
2022-09-17T19:31:14.162Z,10.80
2022-09-17T19:34:04.592Z,11.60
2022-09-17T19:36:53.509Z,10.80
2022-09-17T19:39:46.996Z,11.20
2022-09-17T19:42:35.671Z,10.90
2022-09-17T19:45:24.108Z,10.50
2022-09-17T19:48:14.334Z,10.90
2022-09-17T19:51:05.063Z,10.80
2022-09-17T19:53:55.303Z,10.90
2022-09-17T19:56:44.323Z,12.30
2022-09-17T19:59:31.643Z,10.80
2022-09-17T20:02:20.620Z,10.70
2022-09-17T20:05:09.813Z,10.70
2022-09-17T20:08:00.624Z,11.60
2022-09-17T20:10:50.326Z,10.60
2022-09-17T20:13:38.094Z,10.70
2022-09-17T20:16:27.293Z,10.60
2022-09-17T20:19:17.842Z,10.60
2022-09-17T20:22:06.172Z,10.60
2022-09-17T20:25:00.784Z,10.60
2022-09-17T20:27:52.228Z,10.60
2022-09-17T20:30:40.444Z,10.60
2022-09-17T20:33:29.212Z,10.60
2022-09-17T20:36:18.322Z,10.60
2022-09-17T20:39:21.158Z,10.50
2022-09-17T20:42:10.632Z,10.60
2022-09-17T20:45:04.648Z,10.60
2022-09-17T20:47:53.747Z,10.60
2022-09-17T20:50:42.060Z,10.70
2022-09-17T20:53:30.234Z,11.10
2022-09-17T20:56:18.842Z,10.60
2022-09-17T20:59:14.485Z,10.80
2022-09-17T21:02:04.793Z,10.70
2022-09-17T21:04:53.793Z,10.70
2022-09-17T21:07:47.872Z,11.10
2022-09-17T21:10:36.461Z,10.60
2022-09-17T21:13:25.482Z,9.30
2022-09-17T21:16:17.488Z,10.70
2022-09-17T21:19:08.291Z,10.70
2022-09-17T21:22:01.657Z,10.70
2022-09-17T21:24:49.810Z,10.90
2022-09-17T21:27:43.035Z,10.90
2022-09-17T21:30:32.011Z,12.60
2022-09-17T21:33:23.324Z,10.70
2022-09-17T21:36:14.413Z,10.70
2022-09-17T21:39:06.323Z,10.70
2022-09-17T21:42:05.823Z,10.70
2022-09-17T21:44:59.622Z,10.90
2022-09-17T21:47:47.829Z,10.80
2022-09-17T21:50:39.064Z,10.70
2022-09-17T21:53:28.568Z,10.70
2022-09-17T21:56:17.492Z,11.10
2022-09-17T21:59:13.792Z,10.70
2022-09-17T22:02:01.819Z,10.70
2022-09-17T22:04:49.988Z,10.70
2022-09-17T22:07:38.979Z,10.70
2022-09-17T22:10:27.997Z,10.60
2022-09-17T22:13:16.287Z,10.60
2022-09-17T22:16:05.215Z,10.60
2022-09-17T22:18:54.117Z,10.70
2022-09-17T22:21:45.481Z,10.60
2022-09-17T22:24:33.545Z,10.60
2022-09-17T22:27:22.838Z,10.40
2022-09-17T22:30:11.473Z,10.40
2022-09-17T22:33:02.364Z,9.30
2022-09-17T22:35:50.040Z,10.60
2022-09-17T22:38:37.902Z,10.60
2022-09-17T22:41:26.430Z,10.60
2022-09-17T22:44:17.937Z,10.60
2022-09-17T22:47:07.554Z,10.70
2022-09-17T22:49:56.076Z,10.70
2022-09-17T22:52:48.881Z,9.40
2022-09-17T22:55:38.404Z,10.90
2022-09-17T22:58:26.303Z,12.20
2022-09-17T23:01:18.184Z,10.70
2022-09-17T23:04:06.951Z,10.80
2022-09-17T23:06:54.571Z,9.20
2022-09-17T23:09:42.569Z,9.90
2022-09-17T23:12:30.663Z,10.80
2022-09-17T23:15:20.121Z,10.80
2022-09-17T23:18:09.619Z,10.80
2022-09-17T23:21:04.210Z,10.70
2022-09-17T23:23:52.853Z,10.80
2022-09-17T23:26:40.647Z,10.80
2022-09-17T23:29:28.516Z,10.80
2022-09-17T23:32:16.962Z,10.80
2022-09-17T23:35:08.892Z,10.80
2022-09-17T23:37:56.657Z,9.70
2022-09-17T23:40:44.782Z,10.80
2022-09-17T23:43:32.868Z,10.70
2022-09-17T23:46:23.415Z,10.80
2022-09-17T23:49:16.657Z,11.60
2022-09-17T23:52:08.323Z,10.80
2022-09-17T23:54:58.602Z,10.80
2022-09-17T23:57:46.613Z,10.10
